sensor_id;sensor_type;location;lat;lon;timestamp;P1;durP1;ratioP1;P2;durP2;ratioP2
85763;SDS011;76207;39.772;2.706;2024-02-14T00:02:10;30.50;;;10.50;;
85763;SDS011;76207;39.772;2.706;2024-02-14T00:04:35;26.20;;;10.80;;
85763;SDS011;76207;39.772;2.706;2024-02-14T00:07:01;28.60;;;15.40;;
85763;SDS011;76207;39.772;2.706;2024-02-14T00:09:27;25.20;;;14.50;;
85763;SDS011;76207;39.772;2.706;2024-02-14T00:11:52;24.00;;;13.20;;
85763;SDS011;76207;39.772;2.706;2024-02-14T00:14:18;21.50;;;10.30;;
85763;SDS011;76207;39.772;2.706;2024-02-14T00:16:46;19.00;;;10.40;;
85763;SDS011;76207;39.772;2.706;2024-02-14T00:19:11;18.60;;;9.30;;
85763;SDS011;76207;39.772;2.706;2024-02-14T00:21:37;17.00;;;8.70;;
85763;SDS011;76207;39.772;2.706;2024-02-14T00:24:04;18.20;;;8.60;;
85763;SDS011;76207;39.772;2.706;2024-02-14T00:26:30;15.10;;;7.10;;
85763;SDS011;76207;39.772;2.706;2024-02-14T00:28:55;14.40;;;7.10;;
85763;SDS011;76207;39.772;2.706;2024-02-14T00:31:21;14.20;;;7.30;;
85763;SDS011;76207;39.772;2.706;2024-02-14T00:33:46;13.30;;;6.30;;
85763;SDS011;76207;39.772;2.706;2024-02-14T00:36:12;10.70;;;6.60;;
85763;SDS011;76207;39.772;2.706;2024-02-14T00:38:37;10.10;;;5.30;;
85763;SDS011;76207;39.772;2.706;2024-02-14T00:41:03;8.60;;;4.60;;
85763;SDS011;76207;39.772;2.706;2024-02-14T00:43:29;8.60;;;4.40;;
85763;SDS011;76207;39.772;2.706;2024-02-14T00:45:54;6.70;;;3.80;;
85763;SDS011;76207;39.772;2.706;2024-02-14T00:48:22;9.10;;;4.40;;
85763;SDS011;76207;39.772;2.706;2024-02-14T00:50:48;7.80;;;4.70;;
85763;SDS011;76207;39.772;2.706;2024-02-14T00:53:17;7.00;;;5.20;;
85763;SDS011;76207;39.772;2.706;2024-02-14T00:55:44;6.70;;;4.20;;
85763;SDS011;76207;39.772;2.706;2024-02-14T00:58:09;5.10;;;3.70;;
85763;SDS011;76207;39.772;2.706;2024-02-14T01:00:35;6.50;;;3.90;;
85763;SDS011;76207;39.772;2.706;2024-02-14T01:03:00;5.10;;;3.80;;
85763;SDS011;76207;39.772;2.706;2024-02-14T01:05:27;4.70;;;3.30;;
85763;SDS011;76207;39.772;2.706;2024-02-14T01:07:53;6.90;;;4.10;;
85763;SDS011;76207;39.772;2.706;2024-02-14T01:10:19;14.10;;;9.10;;
85763;SDS011;76207;39.772;2.706;2024-02-14T01:12:45;20.20;;;12.70;;
85763;SDS011;76207;39.772;2.706;2024-02-14T01:15:11;22.10;;;13.80;;
85763;SDS011;76207;39.772;2.706;2024-02-14T01:17:36;22.10;;;14.60;;
85763;SDS011;76207;39.772;2.706;2024-02-14T01:20:04;20.70;;;13.60;;
85763;SDS011;76207;39.772;2.706;2024-02-14T01:22:33;19.60;;;13.90;;
85763;SDS011;76207;39.772;2.706;2024-02-14T01:25:00;19.60;;;12.60;;
85763;SDS011;76207;39.772;2.706;2024-02-14T01:27:25;12.10;;;8.80;;
85763;SDS011;76207;39.772;2.706;2024-02-14T01:29:51;12.50;;;8.30;;
85763;SDS011;76207;39.772;2.706;2024-02-14T01:32:16;12.30;;;7.50;;
85763;SDS011;76207;39.772;2.706;2024-02-14T01:34:42;11.60;;;7.50;;
85763;SDS011;76207;39.772;2.706;2024-02-14T01:37:07;10.20;;;5.40;;
85763;SDS011;76207;39.772;2.706;2024-02-14T01:39:35;8.40;;;5.50;;
85763;SDS011;76207;39.772;2.706;2024-02-14T01:42:00;7.20;;;4.00;;
85763;SDS011;76207;39.772;2.706;2024-02-14T01:44:32;6.40;;;3.60;;
85763;SDS011;76207;39.772;2.706;2024-02-14T01:46:58;5.10;;;3.40;;
85763;SDS011;76207;39.772;2.706;2024-02-14T01:49:24;7.20;;;3.70;;
85763;SDS011;76207;39.772;2.706;2024-02-14T01:51:53;6.50;;;3.20;;
85763;SDS011;76207;39.772;2.706;2024-02-14T01:54:23;7.20;;;3.40;;
85763;SDS011;76207;39.772;2.706;2024-02-14T01:56:49;5.40;;;3.50;;
85763;SDS011;76207;39.772;2.706;2024-02-14T01:59:15;4.60;;;3.30;;
85763;SDS011;76207;39.772;2.706;2024-02-14T02:01:43;4.00;;;3.00;;
85763;SDS011;76207;39.772;2.706;2024-02-14T02:04:09;4.30;;;2.30;;
85763;SDS011;76207;39.772;2.706;2024-02-14T02:06:35;2.60;;;2.00;;
85763;SDS011;76207;39.772;2.706;2024-02-14T02:09:02;4.50;;;2.00;;
85763;SDS011;76207;39.772;2.706;2024-02-14T02:11:28;4.10;;;3.00;;
85763;SDS011;76207;39.772;2.706;2024-02-14T02:13:55;4.20;;;2.70;;
85763;SDS011;76207;39.772;2.706;2024-02-14T02:16:21;4.00;;;2.50;;
85763;SDS011;76207;39.772;2.706;2024-02-14T02:18:47;2.90;;;2.30;;
85763;SDS011;76207;39.772;2.706;2024-02-14T02:21:15;3.00;;;2.10;;
85763;SDS011;76207;39.772;2.706;2024-02-14T02:23:45;4.10;;;2.80;;
85763;SDS011;76207;39.772;2.706;2024-02-14T02:26:11;4.50;;;2.40;;
85763;SDS011;76207;39.772;2.706;2024-02-14T02:28:36;3.30;;;2.40;;
85763;SDS011;76207;39.772;2.706;2024-02-14T02:31:04;3.50;;;2.00;;
85763;SDS011;76207;39.772;2.706;2024-02-14T02:33:30;4.00;;;2.50;;
85763;SDS011;76207;39.772;2.706;2024-02-14T02:35:55;3.00;;;2.00;;
85763;SDS011;76207;39.772;2.706;2024-02-14T02:38:21;3.90;;;1.90;;
85763;SDS011;76207;39.772;2.706;2024-02-14T02:40:48;3.30;;;2.00;;
85763;SDS011;76207;39.772;2.706;2024-02-14T02:43:13;4.10;;;2.40;;
85763;SDS011;76207;39.772;2.706;2024-02-14T02:45:38;3.30;;;2.00;;
85763;SDS011;76207;39.772;2.706;2024-02-14T02:48:05;3.90;;;2.40;;
85763;SDS011;76207;39.772;2.706;2024-02-14T02:50:31;5.60;;;2.70;;
85763;SDS011;76207;39.772;2.706;2024-02-14T02:52:56;6.20;;;2.90;;
85763;SDS011;76207;39.772;2.706;2024-02-14T02:55:22;4.50;;;2.70;;
85763;SDS011;76207;39.772;2.706;2024-02-14T02:57:48;5.00;;;3.10;;
85763;SDS011;76207;39.772;2.706;2024-02-14T03:00:14;4.30;;;2.50;;
85763;SDS011;76207;39.772;2.706;2024-02-14T03:02:41;3.60;;;2.00;;
85763;SDS011;76207;39.772;2.706;2024-02-14T03:05:09;3.10;;;1.90;;
85763;SDS011;76207;39.772;2.706;2024-02-14T03:07:43;3.10;;;2.20;;
85763;SDS011;76207;39.772;2.706;2024-02-14T03:10:10;3.80;;;2.00;;
85763;SDS011;76207;39.772;2.706;2024-02-14T03:12:44;2.70;;;1.80;;
85763;SDS011;76207;39.772;2.706;2024-02-14T03:15:10;4.10;;;2.00;;
85763;SDS011;76207;39.772;2.706;2024-02-14T03:17:36;3.00;;;2.00;;
85763;SDS011;76207;39.772;2.706;2024-02-14T03:20:02;2.50;;;1.90;;
85763;SDS011;76207;39.772;2.706;2024-02-14T03:22:32;5.40;;;2.10;;
85763;SDS011;76207;39.772;2.706;2024-02-14T03:24:57;3.00;;;2.20;;
85763;SDS011;76207;39.772;2.706;2024-02-14T03:27:23;3.80;;;2.10;;
85763;SDS011;76207;39.772;2.706;2024-02-14T03:29:52;4.80;;;3.10;;
85763;SDS011;76207;39.772;2.706;2024-02-14T03:32:17;4.00;;;2.50;;
85763;SDS011;76207;39.772;2.706;2024-02-14T03:34:43;4.50;;;2.90;;
85763;SDS011;76207;39.772;2.706;2024-02-14T03:37:08;5.80;;;3.20;;
85763;SDS011;76207;39.772;2.706;2024-02-14T03:39:35;4.20;;;2.80;;
85763;SDS011;76207;39.772;2.706;2024-02-14T03:42:01;5.10;;;3.00;;
85763;SDS011;76207;39.772;2.706;2024-02-14T03:46:57;5.00;;;2.80;;
85763;SDS011;76207;39.772;2.706;2024-02-14T03:49:23;4.30;;;2.80;;
85763;SDS011;76207;39.772;2.706;2024-02-14T03:51:50;4.10;;;3.00;;
85763;SDS011;76207;39.772;2.706;2024-02-14T03:54:19;4.90;;;2.90;;
85763;SDS011;76207;39.772;2.706;2024-02-14T03:56:45;3.90;;;2.60;;
85763;SDS011;76207;39.772;2.706;2024-02-14T03:59:11;6.30;;;3.00;;
85763;SDS011;76207;39.772;2.706;2024-02-14T04:01:36;4.00;;;2.90;;
85763;SDS011;76207;39.772;2.706;2024-02-14T04:04:02;5.60;;;3.00;;
85763;SDS011;76207;39.772;2.706;2024-02-14T04:06:27;4.00;;;3.20;;
85763;SDS011;76207;39.772;2.706;2024-02-14T04:08:56;5.00;;;3.00;;
85763;SDS011;76207;39.772;2.706;2024-02-14T04:11:22;4.60;;;3.10;;
85763;SDS011;76207;39.772;2.706;2024-02-14T04:13:48;3.50;;;2.80;;
85763;SDS011;76207;39.772;2.706;2024-02-14T04:16:13;5.20;;;2.80;;
85763;SDS011;76207;39.772;2.706;2024-02-14T04:18:39;3.60;;;2.70;;
85763;SDS011;76207;39.772;2.706;2024-02-14T04:21:07;3.70;;;2.60;;
85763;SDS011;76207;39.772;2.706;2024-02-14T04:23:33;3.20;;;2.40;;
85763;SDS011;76207;39.772;2.706;2024-02-14T04:25:58;4.10;;;2.30;;
85763;SDS011;76207;39.772;2.706;2024-02-14T04:28:24;3.50;;;2.20;;
85763;SDS011;76207;39.772;2.706;2024-02-14T04:30:49;3.70;;;2.40;;
85763;SDS011;76207;39.772;2.706;2024-02-14T04:33:15;3.10;;;2.00;;
85763;SDS011;76207;39.772;2.706;2024-02-14T04:35:40;2.60;;;2.00;;
85763;SDS011;76207;39.772;2.706;2024-02-14T04:38:06;3.50;;;2.30;;
85763;SDS011;76207;39.772;2.706;2024-02-14T04:40:33;3.10;;;2.10;;
85763;SDS011;76207;39.772;2.706;2024-02-14T04:42:59;5.70;;;2.60;;
85763;SDS011;76207;39.772;2.706;2024-02-14T04:45:25;4.40;;;2.80;;
85763;SDS011;76207;39.772;2.706;2024-02-14T04:47:50;4.00;;;3.00;;
85763;SDS011;76207;39.772;2.706;2024-02-14T04:50:16;4.10;;;2.40;;
85763;SDS011;76207;39.772;2.706;2024-02-14T04:52:41;4.50;;;2.60;;
85763;SDS011;76207;39.772;2.706;2024-02-14T04:55:07;7.10;;;3.20;;
85763;SDS011;76207;39.772;2.706;2024-02-14T04:57:33;6.60;;;3.00;;
85763;SDS011;76207;39.772;2.706;2024-02-14T05:00:00;17.70;;;2.90;;
85763;SDS011;76207;39.772;2.706;2024-02-14T05:02:26;7.00;;;3.00;;
85763;SDS011;76207;39.772;2.706;2024-02-14T05:04:53;11.00;;;2.50;;
85763;SDS011;76207;39.772;2.706;2024-02-14T05:07:19;5.20;;;3.00;;
85763;SDS011;76207;39.772;2.706;2024-02-14T05:09:45;4.80;;;2.50;;
85763;SDS011;76207;39.772;2.706;2024-02-14T05:12:10;5.10;;;3.00;;
85763;SDS011;76207;39.772;2.706;2024-02-14T05:14:37;4.90;;;2.60;;
85763;SDS011;76207;39.772;2.706;2024-02-14T05:17:03;5.10;;;2.50;;
85763;SDS011;76207;39.772;2.706;2024-02-14T05:19:29;3.80;;;1.70;;
85763;SDS011;76207;39.772;2.706;2024-02-14T05:21:55;2.70;;;1.80;;
85763;SDS011;76207;39.772;2.706;2024-02-14T05:24:21;3.00;;;2.10;;
85763;SDS011;76207;39.772;2.706;2024-02-14T05:26:46;3.80;;;1.70;;
85763;SDS011;76207;39.772;2.706;2024-02-14T05:29:12;2.40;;;1.60;;
85763;SDS011;76207;39.772;2.706;2024-02-14T05:31:44;2.50;;;1.60;;
85763;SDS011;76207;39.772;2.706;2024-02-14T05:34:11;3.80;;;1.90;;
85763;SDS011;76207;39.772;2.706;2024-02-14T05:36:37;5.20;;;1.90;;
85763;SDS011;76207;39.772;2.706;2024-02-14T05:39:03;6.00;;;2.20;;
85763;SDS011;76207;39.772;2.706;2024-02-14T05:41:31;3.40;;;1.90;;
85763;SDS011;76207;39.772;2.706;2024-02-14T05:43:58;4.30;;;2.20;;
85763;SDS011;76207;39.772;2.706;2024-02-14T05:46:24;5.40;;;2.60;;
85763;SDS011;76207;39.772;2.706;2024-02-14T05:48:50;4.20;;;2.10;;
85763;SDS011;76207;39.772;2.706;2024-02-14T05:51:17;4.10;;;2.50;;
85763;SDS011;76207;39.772;2.706;2024-02-14T05:53:43;7.20;;;3.40;;
85763;SDS011;76207;39.772;2.706;2024-02-14T05:56:08;5.10;;;3.30;;
85763;SDS011;76207;39.772;2.706;2024-02-14T05:58:33;7.70;;;4.10;;
85763;SDS011;76207;39.772;2.706;2024-02-14T06:00:59;6.30;;;4.50;;
85763;SDS011;76207;39.772;2.706;2024-02-14T06:03:24;5.30;;;3.30;;
85763;SDS011;76207;39.772;2.706;2024-02-14T06:05:50;7.40;;;3.20;;
85763;SDS011;76207;39.772;2.706;2024-02-14T06:08:18;5.70;;;3.00;;
85763;SDS011;76207;39.772;2.706;2024-02-14T06:10:44;7.90;;;2.90;;
85763;SDS011;76207;39.772;2.706;2024-02-14T06:13:10;7.60;;;3.00;;
85763;SDS011;76207;39.772;2.706;2024-02-14T06:15:35;9.10;;;2.70;;
85763;SDS011;76207;39.772;2.706;2024-02-14T06:18:01;9.90;;;3.00;;
85763;SDS011;76207;39.772;2.706;2024-02-14T06:20:26;6.40;;;2.90;;
85763;SDS011;76207;39.772;2.706;2024-02-14T06:22:52;7.00;;;2.90;;
85763;SDS011;76207;39.772;2.706;2024-02-14T06:25:17;4.90;;;2.20;;
85763;SDS011;76207;39.772;2.706;2024-02-14T06:27:43;8.20;;;2.50;;
85763;SDS011;76207;39.772;2.706;2024-02-14T06:30:09;4.00;;;2.50;;
85763;SDS011;76207;39.772;2.706;2024-02-14T06:32:35;4.40;;;2.60;;
85763;SDS011;76207;39.772;2.706;2024-02-14T06:35:01;6.30;;;2.50;;
85763;SDS011;76207;39.772;2.706;2024-02-14T06:37:27;5.80;;;2.10;;
85763;SDS011;76207;39.772;2.706;2024-02-14T06:39:53;4.70;;;2.30;;
85763;SDS011;76207;39.772;2.706;2024-02-14T06:42:18;2.80;;;2.30;;
85763;SDS011;76207;39.772;2.706;2024-02-14T06:44:44;3.80;;;2.60;;
85763;SDS011;76207;39.772;2.706;2024-02-14T06:47:11;10.20;;;3.00;;
85763;SDS011;76207;39.772;2.706;2024-02-14T06:49:36;5.00;;;2.10;;
85763;SDS011;76207;39.772;2.706;2024-02-14T06:52:03;6.80;;;2.70;;
85763;SDS011;76207;39.772;2.706;2024-02-14T06:54:29;5.70;;;2.60;;
85763;SDS011;76207;39.772;2.706;2024-02-14T06:56:54;5.60;;;2.50;;
85763;SDS011;76207;39.772;2.706;2024-02-14T06:59:20;4.30;;;2.50;;
85763;SDS011;76207;39.772;2.706;2024-02-14T07:01:45;6.00;;;3.70;;
85763;SDS011;76207;39.772;2.706;2024-02-14T07:04:11;9.10;;;4.60;;
85763;SDS011;76207;39.772;2.706;2024-02-14T07:06:37;8.20;;;4.30;;
85763;SDS011;76207;39.772;2.706;2024-02-14T07:09:02;8.60;;;4.30;;
85763;SDS011;76207;39.772;2.706;2024-02-14T07:11:28;8.30;;;4.90;;
85763;SDS011;76207;39.772;2.706;2024-02-14T07:13:55;8.40;;;4.60;;
85763;SDS011;76207;39.772;2.706;2024-02-14T07:16:21;8.90;;;4.70;;
85763;SDS011;76207;39.772;2.706;2024-02-14T07:18:47;10.30;;;4.70;;
85763;SDS011;76207;39.772;2.706;2024-02-14T07:21:12;7.60;;;3.50;;
85763;SDS011;76207;39.772;2.706;2024-02-14T07:23:38;5.20;;;3.40;;
85763;SDS011;76207;39.772;2.706;2024-02-14T07:26:03;9.90;;;3.50;;
85763;SDS011;76207;39.772;2.706;2024-02-14T07:28:29;6.10;;;3.10;;
85763;SDS011;76207;39.772;2.706;2024-02-14T07:30:54;5.50;;;3.20;;
85763;SDS011;76207;39.772;2.706;2024-02-14T07:33:20;8.30;;;3.30;;
85763;SDS011;76207;39.772;2.706;2024-02-14T07:35:45;11.40;;;4.60;;
85763;SDS011;76207;39.772;2.706;2024-02-14T07:38:12;13.80;;;7.30;;
85763;SDS011;76207;39.772;2.706;2024-02-14T07:40:38;9.30;;;6.20;;
85763;SDS011;76207;39.772;2.706;2024-02-14T07:43:04;10.10;;;6.60;;
85763;SDS011;76207;39.772;2.706;2024-02-14T07:45:32;17.00;;;6.60;;
85763;SDS011;76207;39.772;2.706;2024-02-14T07:47:57;13.50;;;6.20;;
85763;SDS011;76207;39.772;2.706;2024-02-14T07:50:23;9.50;;;6.20;;
85763;SDS011;76207;39.772;2.706;2024-02-14T07:52:48;10.10;;;7.10;;
85763;SDS011;76207;39.772;2.706;2024-02-14T07:55:14;18.60;;;8.90;;
85763;SDS011;76207;39.772;2.706;2024-02-14T07:57:40;12.60;;;8.50;;
85763;SDS011;76207;39.772;2.706;2024-02-14T08:00:06;13.90;;;8.00;;
85763;SDS011;76207;39.772;2.706;2024-02-14T08:02:33;11.80;;;6.40;;
85763;SDS011;76207;39.772;2.706;2024-02-14T08:04:59;11.00;;;6.10;;
85763;SDS011;76207;39.772;2.706;2024-02-14T08:07:25;9.40;;;5.20;;
85763;SDS011;76207;39.772;2.706;2024-02-14T08:09:51;9.10;;;4.80;;
85763;SDS011;76207;39.772;2.706;2024-02-14T08:12:16;12.20;;;6.50;;
85763;SDS011;76207;39.772;2.706;2024-02-14T08:14:42;7.10;;;5.00;;
85763;SDS011;76207;39.772;2.706;2024-02-14T08:17:07;5.50;;;4.70;;
85763;SDS011;76207;39.772;2.706;2024-02-14T08:19:33;7.70;;;4.10;;
85763;SDS011;76207;39.772;2.706;2024-02-14T08:21:58;6.90;;;4.30;;
85763;SDS011;76207;39.772;2.706;2024-02-14T08:24:28;5.90;;;4.10;;
85763;SDS011;76207;39.772;2.706;2024-02-14T08:26:53;8.90;;;5.40;;
85763;SDS011;76207;39.772;2.706;2024-02-14T08:29:20;11.90;;;6.40;;
85763;SDS011;76207;39.772;2.706;2024-02-14T08:31:46;10.20;;;6.20;;
85763;SDS011;76207;39.772;2.706;2024-02-14T08:34:13;9.30;;;5.30;;
85763;SDS011;76207;39.772;2.706;2024-02-14T08:36:39;13.50;;;7.50;;
85763;SDS011;76207;39.772;2.706;2024-02-14T08:39:09;12.40;;;9.00;;
85763;SDS011;76207;39.772;2.706;2024-02-14T08:41:38;16.90;;;9.90;;
85763;SDS011;76207;39.772;2.706;2024-02-14T08:44:06;18.00;;;15.10;;
85763;SDS011;76207;39.772;2.706;2024-02-14T08:46:32;21.90;;;16.90;;
85763;SDS011;76207;39.772;2.706;2024-02-14T08:49:00;19.10;;;13.90;;
85763;SDS011;76207;39.772;2.706;2024-02-14T08:51:27;16.10;;;11.00;;
85763;SDS011;76207;39.772;2.706;2024-02-14T08:53:54;16.00;;;12.20;;
85763;SDS011;76207;39.772;2.706;2024-02-14T08:56:22;23.00;;;16.80;;
85763;SDS011;76207;39.772;2.706;2024-02-14T08:58:48;18.90;;;12.70;;
85763;SDS011;76207;39.772;2.706;2024-02-14T09:01:17;20.40;;;14.60;;
85763;SDS011;76207;39.772;2.706;2024-02-14T09:03:43;20.00;;;16.10;;
85763;SDS011;76207;39.772;2.706;2024-02-14T09:06:13;25.10;;;17.20;;
85763;SDS011;76207;39.772;2.706;2024-02-14T09:08:40;22.60;;;16.90;;
85763;SDS011;76207;39.772;2.706;2024-02-14T09:11:05;26.40;;;17.20;;
85763;SDS011;76207;39.772;2.706;2024-02-14T09:13:31;25.80;;;17.00;;
85763;SDS011;76207;39.772;2.706;2024-02-14T09:15:56;23.10;;;16.90;;
85763;SDS011;76207;39.772;2.706;2024-02-14T09:18:22;26.50;;;16.80;;
85763;SDS011;76207;39.772;2.706;2024-02-14T09:20:49;24.70;;;17.20;;
85763;SDS011;76207;39.772;2.706;2024-02-14T09:23:15;27.90;;;17.70;;
85763;SDS011;76207;39.772;2.706;2024-02-14T09:25:45;22.80;;;15.20;;
85763;SDS011;76207;39.772;2.706;2024-02-14T09:28:12;24.30;;;15.60;;
85763;SDS011;76207;39.772;2.706;2024-02-14T09:30:39;19.90;;;14.60;;
85763;SDS011;76207;39.772;2.706;2024-02-14T09:33:05;24.10;;;16.10;;
85763;SDS011;76207;39.772;2.706;2024-02-14T09:35:30;23.60;;;15.60;;
85763;SDS011;76207;39.772;2.706;2024-02-14T09:37:56;21.50;;;14.80;;
85763;SDS011;76207;39.772;2.706;2024-02-14T09:40:21;26.70;;;16.50;;
85763;SDS011;76207;39.772;2.706;2024-02-14T09:42:54;26.90;;;16.30;;
85763;SDS011;76207;39.772;2.706;2024-02-14T09:45:25;25.70;;;16.70;;
85763;SDS011;76207;39.772;2.706;2024-02-14T09:47:52;30.80;;;19.30;;
85763;SDS011;76207;39.772;2.706;2024-02-14T09:50:21;29.40;;;19.70;;
85763;SDS011;76207;39.772;2.706;2024-02-14T09:52:49;36.30;;;24.20;;
85763;SDS011;76207;39.772;2.706;2024-02-14T09:55:16;32.10;;;20.50;;
85763;SDS011;76207;39.772;2.706;2024-02-14T09:57:43;34.00;;;22.20;;
85763;SDS011;76207;39.772;2.706;2024-02-14T10:00:10;28.60;;;19.90;;
85763;SDS011;76207;39.772;2.706;2024-02-14T10:02:36;32.60;;;22.80;;
85763;SDS011;76207;39.772;2.706;2024-02-14T10:05:03;38.30;;;25.70;;
85763;SDS011;76207;39.772;2.706;2024-02-14T10:07:29;33.00;;;22.70;;
85763;SDS011;76207;39.772;2.706;2024-02-14T10:09:54;35.00;;;22.70;;
85763;SDS011;76207;39.772;2.706;2024-02-14T10:12:20;31.10;;;22.20;;
85763;SDS011;76207;39.772;2.706;2024-02-14T10:14:45;25.20;;;18.90;;
85763;SDS011;76207;39.772;2.706;2024-02-14T10:17:20;29.10;;;18.40;;
85763;SDS011;76207;39.772;2.706;2024-02-14T10:19:55;20.50;;;15.40;;
85763;SDS011;76207;39.772;2.706;2024-02-14T10:22:22;18.20;;;14.00;;
85763;SDS011;76207;39.772;2.706;2024-02-14T10:24:48;16.20;;;10.30;;
85763;SDS011;76207;39.772;2.706;2024-02-14T10:27:14;8.60;;;6.40;;
85763;SDS011;76207;39.772;2.706;2024-02-14T10:29:40;7.90;;;5.20;;
85763;SDS011;76207;39.772;2.706;2024-02-14T10:32:07;6.20;;;4.40;;
85763;SDS011;76207;39.772;2.706;2024-02-14T10:34:33;5.90;;;4.10;;
85763;SDS011;76207;39.772;2.706;2024-02-14T10:36:59;5.50;;;3.10;;
85763;SDS011;76207;39.772;2.706;2024-02-14T10:39:27;6.30;;;3.30;;
85763;SDS011;76207;39.772;2.706;2024-02-14T10:41:56;4.20;;;2.10;;
85763;SDS011;76207;39.772;2.706;2024-02-14T10:44:22;3.50;;;2.00;;
85763;SDS011;76207;39.772;2.706;2024-02-14T10:46:48;4.10;;;2.10;;
85763;SDS011;76207;39.772;2.706;2024-02-14T10:49:17;3.00;;;1.80;;
85763;SDS011;76207;39.772;2.706;2024-02-14T10:51:45;2.90;;;1.80;;
85763;SDS011;76207;39.772;2.706;2024-02-14T10:54:14;3.30;;;1.90;;
85763;SDS011;76207;39.772;2.706;2024-02-14T10:56:45;3.10;;;1.70;;
85763;SDS011;76207;39.772;2.706;2024-02-14T10:59:15;2.90;;;1.70;;
85763;SDS011;76207;39.772;2.706;2024-02-14T11:01:43;2.60;;;1.60;;
85763;SDS011;76207;39.772;2.706;2024-02-14T11:04:10;3.70;;;1.50;;
85763;SDS011;76207;39.772;2.706;2024-02-14T11:06:48;2.50;;;1.50;;
85763;SDS011;76207;39.772;2.706;2024-02-14T11:09:18;2.50;;;1.60;;
85763;SDS011;76207;39.772;2.706;2024-02-14T11:11:44;6.40;;;3.40;;
85763;SDS011;76207;39.772;2.706;2024-02-14T11:14:15;6.00;;;4.40;;
85763;SDS011;76207;39.772;2.706;2024-02-14T11:16:44;3.40;;;2.60;;
85763;SDS011;76207;39.772;2.706;2024-02-14T11:19:11;6.40;;;2.70;;
85763;SDS011;76207;39.772;2.706;2024-02-14T11:21:41;3.20;;;2.00;;
85763;SDS011;76207;39.772;2.706;2024-02-14T11:24:11;4.50;;;1.90;;
85763;SDS011;76207;39.772;2.706;2024-02-14T11:29:17;2.60;;;1.90;;
85763;SDS011;76207;39.772;2.706;2024-02-14T11:31:44;3.70;;;2.30;;
85763;SDS011;76207;39.772;2.706;2024-02-14T11:34:14;2.20;;;1.80;;
85763;SDS011;76207;39.772;2.706;2024-02-14T11:41:37;4.20;;;2.10;;
85763;SDS011;76207;39.772;2.706;2024-02-14T11:44:06;3.60;;;2.70;;
85763;SDS011;76207;39.772;2.706;2024-02-14T11:46:32;3.20;;;2.00;;
85763;SDS011;76207;39.772;2.706;2024-02-14T11:48:59;3.50;;;2.00;;
85763;SDS011;76207;39.772;2.706;2024-02-14T11:51:27;4.30;;;2.10;;
85763;SDS011;76207;39.772;2.706;2024-02-14T11:53:58;3.40;;;2.10;;
85763;SDS011;76207;39.772;2.706;2024-02-14T11:56:31;4.80;;;2.10;;
85763;SDS011;76207;39.772;2.706;2024-02-14T11:59:01;14.10;;;10.80;;
85763;SDS011;76207;39.772;2.706;2024-02-14T12:01:30;7.00;;;4.60;;
85763;SDS011;76207;39.772;2.706;2024-02-14T12:04:01;6.30;;;4.60;;
85763;SDS011;76207;39.772;2.706;2024-02-14T12:06:29;4.90;;;3.50;;
85763;SDS011;76207;39.772;2.706;2024-02-14T12:09:00;6.30;;;3.10;;
85763;SDS011;76207;39.772;2.706;2024-02-14T12:11:30;4.40;;;2.70;;
85763;SDS011;76207;39.772;2.706;2024-02-14T12:14:02;7.90;;;2.80;;
85763;SDS011;76207;39.772;2.706;2024-02-14T12:16:29;5.00;;;2.70;;
85763;SDS011;76207;39.772;2.706;2024-02-14T12:19:04;4.40;;;2.50;;
85763;SDS011;76207;39.772;2.706;2024-02-14T12:21:41;5.40;;;3.30;;
85763;SDS011;76207;39.772;2.706;2024-02-14T12:24:10;5.30;;;2.40;;
85763;SDS011;76207;39.772;2.706;2024-02-14T12:26:40;3.50;;;1.90;;
85763;SDS011;76207;39.772;2.706;2024-02-14T12:29:07;3.50;;;1.80;;
85763;SDS011;76207;39.772;2.706;2024-02-14T12:31:34;4.10;;;1.90;;
85763;SDS011;76207;39.772;2.706;2024-02-14T12:34:02;5.50;;;2.30;;
85763;SDS011;76207;39.772;2.706;2024-02-14T12:36:30;4.20;;;2.10;;
85763;SDS011;76207;39.772;2.706;2024-02-14T12:38:58;3.80;;;2.20;;
85763;SDS011;76207;39.772;2.706;2024-02-14T12:41:23;4.20;;;2.00;;
85763;SDS011;76207;39.772;2.706;2024-02-14T12:43:51;4.40;;;1.90;;
85763;SDS011;76207;39.772;2.706;2024-02-14T12:46:17;3.70;;;2.10;;
85763;SDS011;76207;39.772;2.706;2024-02-14T12:48:43;3.40;;;1.90;;
85763;SDS011;76207;39.772;2.706;2024-02-14T12:51:09;4.10;;;2.30;;
85763;SDS011;76207;39.772;2.706;2024-02-14T12:53:35;3.00;;;1.90;;
85763;SDS011;76207;39.772;2.706;2024-02-14T12:56:01;3.70;;;2.50;;
85763;SDS011;76207;39.772;2.706;2024-02-14T12:58:27;4.60;;;2.90;;
85763;SDS011;76207;39.772;2.706;2024-02-14T13:00:52;15.70;;;9.70;;
85763;SDS011;76207;39.772;2.706;2024-02-14T13:03:18;5.60;;;3.40;;
85763;SDS011;76207;39.772;2.706;2024-02-14T13:05:44;5.00;;;3.10;;
85763;SDS011;76207;39.772;2.706;2024-02-14T13:08:12;3.50;;;2.40;;
85763;SDS011;76207;39.772;2.706;2024-02-14T13:10:38;4.20;;;2.10;;
85763;SDS011;76207;39.772;2.706;2024-02-14T13:13:04;4.80;;;1.90;;
85763;SDS011;76207;39.772;2.706;2024-02-14T13:15:30;7.20;;;1.90;;
85763;SDS011;76207;39.772;2.706;2024-02-14T13:17:55;3.50;;;2.00;;
85763;SDS011;76207;39.772;2.706;2024-02-14T13:20:24;5.60;;;2.10;;
85763;SDS011;76207;39.772;2.706;2024-02-14T13:22:49;4.40;;;2.40;;
85763;SDS011;76207;39.772;2.706;2024-02-14T13:25:15;3.80;;;1.80;;
85763;SDS011;76207;39.772;2.706;2024-02-14T13:27:42;4.70;;;2.50;;
85763;SDS011;76207;39.772;2.706;2024-02-14T13:30:09;3.70;;;2.80;;
85763;SDS011;76207;39.772;2.706;2024-02-14T13:32:36;4.00;;;2.40;;
85763;SDS011;76207;39.772;2.706;2024-02-14T13:35:02;5.10;;;1.80;;
85763;SDS011;76207;39.772;2.706;2024-02-14T13:37:32;3.20;;;1.60;;
85763;SDS011;76207;39.772;2.706;2024-02-14T13:39:58;3.20;;;2.00;;
85763;SDS011;76207;39.772;2.706;2024-02-14T13:42:23;3.00;;;1.80;;
85763;SDS011;76207;39.772;2.706;2024-02-14T13:44:49;3.40;;;1.70;;
85763;SDS011;76207;39.772;2.706;2024-02-14T13:47:18;4.30;;;1.90;;
85763;SDS011;76207;39.772;2.706;2024-02-14T13:49:44;3.70;;;1.80;;
85763;SDS011;76207;39.772;2.706;2024-02-14T13:52:09;3.50;;;1.80;;
85763;SDS011;76207;39.772;2.706;2024-02-14T13:54:35;2.90;;;2.00;;
85763;SDS011;76207;39.772;2.706;2024-02-14T13:57:01;4.20;;;1.80;;
85763;SDS011;76207;39.772;2.706;2024-02-14T13:59:27;2.90;;;1.70;;
85763;SDS011;76207;39.772;2.706;2024-02-14T14:01:53;2.40;;;1.50;;
85763;SDS011;76207;39.772;2.706;2024-02-14T14:04:19;3.80;;;1.80;;
85763;SDS011;76207;39.772;2.706;2024-02-14T14:06:45;2.90;;;1.60;;
85763;SDS011;76207;39.772;2.706;2024-02-14T14:09:12;2.80;;;1.70;;
85763;SDS011;76207;39.772;2.706;2024-02-14T14:11:39;3.10;;;2.40;;
85763;SDS011;76207;39.772;2.706;2024-02-14T14:14:05;3.80;;;2.30;;
85763;SDS011;76207;39.772;2.706;2024-02-14T14:16:33;3.40;;;2.20;;
85763;SDS011;76207;39.772;2.706;2024-02-14T14:18:58;4.40;;;2.30;;
85763;SDS011;76207;39.772;2.706;2024-02-14T14:21:25;4.00;;;2.00;;
85763;SDS011;76207;39.772;2.706;2024-02-14T14:23:50;3.40;;;1.90;;
85763;SDS011;76207;39.772;2.706;2024-02-14T14:26:16;4.00;;;1.80;;
85763;SDS011;76207;39.772;2.706;2024-02-14T14:28:42;5.60;;;2.60;;
85763;SDS011;76207;39.772;2.706;2024-02-14T14:31:08;5.30;;;2.10;;
85763;SDS011;76207;39.772;2.706;2024-02-14T14:33:36;3.40;;;1.90;;
85763;SDS011;76207;39.772;2.706;2024-02-14T14:36:03;4.00;;;2.10;;
85763;SDS011;76207;39.772;2.706;2024-02-14T14:38:30;4.90;;;2.00;;
85763;SDS011;76207;39.772;2.706;2024-02-14T14:40:56;4.00;;;1.80;;
85763;SDS011;76207;39.772;2.706;2024-02-14T14:43:24;4.00;;;1.70;;
85763;SDS011;76207;39.772;2.706;2024-02-14T14:45:49;4.70;;;2.20;;
85763;SDS011;76207;39.772;2.706;2024-02-14T14:48:15;4.90;;;2.60;;
85763;SDS011;76207;39.772;2.706;2024-02-14T14:50:43;5.50;;;1.80;;